Time;durP1;ratioP1;P1;durP2;ratioP2;P2;SDS_P1;SDS_P2;PMS_P1;PMS_P2;Temp;Humidity;BMP_temperature;BMP_pressure;BME280_temperature;BME280_humidity;BME280_pressure;Samples;Min_cycle;Max_cycle;Signal;HPM_P1;HPM_P2
2021/01/31 00:00:31;;;;;;;;;;;;;;;;;;5087218;28;19969;-69
2021/01/31 00:02:58;;;;;;;;;;;;;;;;;;5091662;28;19967;-69
2021/01/31 00:05:24;;;;;;;;;;;;;;;;;;5090289;28;20442;-68
2021/01/31 00:07:51;;;;;;;;;;;;;;;;;;5092883;28;19924;-69
2021/01/31 00:10:17;;;;;;;;;;;;;;;;;;5084444;28;19931;-67
2021/01/31 00:12:44;;;;;;;;;;;;;;;;;;5083690;28;20295;-68
2021/01/31 00:15:10;;;;;;;;;;;;;;;;;;5091644;28;19924;-69
2021/01/31 00:17:37;;;;;;;;;;;;;;;;;;5092459;28;19924;-70
2021/01/31 00:20:03;;;;;;;;;;;;;;;;;;5081161;28;19925;-69
2021/01/31 00:22:30;;;;;;;;;;;;;;;;;;5088621;28;19924;-68
2021/01/31 00:24:57;;;;;;;;;;;;;;;;;;5082610;28;19924;-69
2021/01/31 00:27:24;;;;;;;;;;;;;;;;;;5084265;28;19986;-69
2021/01/31 00:29:50;;;;;;;;;;;;;;;;;;5088701;28;19974;-68
2021/01/31 00:32:17;;;;;;;;;;;;;;;;;;5081610;28;19931;-68
2021/01/31 00:34:43;;;;;;;;;;;;;;;;;;5090837;28;19924;-69
2021/01/31 00:37:10;;;;;;;;;;;;;;;;;;5092235;28;19924;-68
2021/01/31 00:39:36;;;;;;;;;;;;;;;;;;5083644;28;20295;-69
2021/01/31 00:42:03;;;;;;;;;;;;;;;;;;5083871;28;19928;-69
2021/01/31 00:44:29;;;;;;;;;;;;;;;;;;5091315;28;20073;-69
2021/01/31 00:46:56;;;;;;;;;;;;;;;;;;5083156;28;19947;-69
2021/01/31 00:49:22;;;;;;;;;;;;;;;;;;5088196;28;20031;-69
2021/01/31 00:51:49;;;;;;;;;;;;;;;;;;5083018;28;19975;-69
2021/01/31 00:54:15;;;;;;;;;;;;;;;;;;5091533;28;19927;-68
2021/01/31 00:56:42;;;;;;;;;;;;;;;;;;5086533;28;20026;-68
2021/01/31 00:59:08;;;;;;;;;;;;;;;;;;5084373;28;19928;-69
2021/01/31 01:01:35;;;;;;;;;;;;;;;;;;5091910;28;19924;-69
2021/01/31 01:04:01;;;;;;;;;;;;;;;;;;5088974;28;20265;-68
2021/01/31 01:06:28;;;;;;;;;;;;;;;;;;5082225;28;19928;-69
2021/01/31 01:08:54;;;;;;;;;;;;;;;;;;5089142;28;20369;-69
2021/01/31 01:11:21;;;;;;;;;;;;;;;;;;5086739;28;19930;-69
2021/01/31 01:13:47;;;;;;;;;;;;;;;;;;5083688;28;19958;-69
2021/01/31 01:16:14;;;;;;;;;;;;;;;;;;5091531;28;19924;-69
2021/01/31 01:18:40;;;;;;;;;;;;;;;;;;5083149;28;19928;-69
2021/01/31 01:21:07;;;;;;;;;;;;;;;;;;5080980;28;19924;-69
2021/01/31 01:23:33;;;;;;;;;;;;;;;;;;5092049;28;20014;-68
2021/01/31 01:26:00;;;;;;;;;;;;;;;;;;5086052;28;19931;-69
2021/01/31 01:28:26;;;;;;;;;;;;;;;;;;5076927;28;19971;-68
2021/01/31 01:30:53;;;;;;;;;;;;;;;;;;5089572;28;19955;-69
2021/01/31 01:33:19;;;;;;;;;;;;;;;;;;5092365;28;20291;-68
2021/01/31 01:35:46;;;;;;;;;;;;;;;;;;5088480;28;19924;-68
2021/01/31 01:38:12;;;;;;;;;;;;;;;;;;5093607;28;19924;-69
2021/01/31 01:40:41;;;;;;;;;;;;;;;;;;5107361;22;20380;-67
2021/01/31 01:43:07;;;;;;;;;;;;;;;;;;5086361;28;19931;-66
2021/01/31 01:45:34;;;;;;;;;;;;;;;;;;5095582;28;20018;-69
2021/01/31 01:48:00;;;;;;;;;;;;;;;;;;5096292;28;19924;-68
2021/01/31 01:50:27;;;;;;;;;;;;;;;;;;5085144;28;19930;-68
2021/01/31 01:52:53;;;;;;;;;;;;;;;;;;5084432;28;19929;-68
2021/01/31 01:55:20;;;;;;;;;;;;;;;;;;5075588;28;19924;-68
2021/01/31 01:57:46;;;;;;;;;;;;;;;;;;5075712;28;19925;-68
2021/01/31 02:00:13;;;;;;;;;;;;;;;;;;5075461;28;19977;-68
2021/01/31 02:02:39;;;;;;;;;;;;;;;;;;5075086;28;19950;-68
2021/01/31 02:05:06;;;;;;;;;;;;;;;;;;5075478;28;19949;-68
2021/01/31 02:07:32;;;;;;;;;;;;;;;;;;5075514;28;19931;-66
2021/01/31 02:09:59;;;;;;;;;;;;;;;;;;5063945;28;19929;-68
2021/01/31 02:12:25;;;;;;;;;;;;;;;;;;5070108;28;20380;-68
2021/01/31 02:14:52;;;;;;;;;;;;;;;;;;5075071;28;19924;-69
2021/01/31 02:17:18;;;;;;;;;;;;;;;;;;5075168;28;19928;-68
2021/01/31 02:19:45;;;;;;;;;;;;;;;;;;5067398;28;19929;-68
2021/01/31 02:22:11;;;;;;;;;;;;;;;;;;5075156;28;19929;-68
2021/01/31 02:24:38;;;;;;;;;;;;;;;;;;5069632;28;19931;-68
2021/01/31 02:27:04;;;;;;;;;;;;;;;;;;5074808;28;19931;-68
2021/01/31 02:29:30;;;;;;;;;;;;;;;;;;5075331;28;20022;-69
2021/01/31 02:31:57;;;;;;;;;;;;;;;;;;5075383;28;19925;-68
2021/01/31 02:34:23;;;;;;;;;;;;;;;;;;5075494;28;20414;-67
2021/01/31 02:36:50;;;;;;;;;;;;;;;;;;5075040;28;19925;-68
2021/01/31 02:39:16;;;;;;;;;;;;;;;;;;5071346;28;19924;-68
2021/01/31 02:41:43;;;;;;;;;;;;;;;;;;5063012;28;19929;-66
2021/01/31 02:44:09;;;;;;;;;;;;;;;;;;5060432;28;19925;-65
2021/01/31 02:46:36;;;;;;;;;;;;;;;;;;5064057;28;20309;-66
2021/01/31 02:49:02;;;;;;;;;;;;;;;;;;5066753;28;19977;-66
2021/01/31 02:51:29;;;;;;;;;;;;;;;;;;5069338;28;20023;-67
2021/01/31 02:53:55;;;;;;;;;;;;;;;;;;5068986;28;19924;-66
2021/01/31 02:56:22;;;;;;;;;;;;;;;;;;5074938;28;19928;-66
2021/01/31 02:58:48;;;;;;;;;;;;;;;;;;5069063;28;19929;-66
2021/01/31 03:01:15;;;;;;;;;;;;;;;;;;5074368;28;19924;-67
2021/01/31 03:03:41;;;;;;;;;;;;;;;;;;5074654;28;19929;-67
2021/01/31 03:06:08;;;;;;;;;;;;;;;;;;5074816;28;20043;-67
2021/01/31 03:08:34;;;;;;;;;;;;;;;;;;5074242;28;19924;-66
2021/01/31 03:11:01;;;;;;;;;;;;;;;;;;5074010;28;20016;-68
2021/01/31 03:13:27;;;;;;;;;;;;;;;;;;5074375;28;19931;-66
2021/01/31 03:15:53;;;;;;;;;;;;;;;;;;5074691;28;19924;-66
2021/01/31 03:18:20;;;;;;;;;;;;;;;;;;5074800;28;19924;-66
2021/01/31 03:20:46;;;;;;;;;;;;;;;;;;5074934;28;19925;-66
2021/01/31 03:23:13;;;;;;;;;;;;;;;;;;5062894;28;19975;-66
2021/01/31 03:25:39;;;;;;;;;;;;;;;;;;5066835;28;19943;-66
2021/01/31 03:28:06;;;;;;;;;;;;;;;;;;5072140;28;19924;-66
2021/01/31 03:30:32;;;;;;;;;;;;;;;;;;5082159;28;19935;-66
2021/01/31 03:32:58;;;;;;;;;;;;;;;;;;5074414;28;20296;-66
2021/01/31 03:35:25;;;;;;;;;;;;;;;;;;5072913;28;20239;-67
2021/01/31 03:37:51;;;;;;;;;;;;;;;;;;5075114;28;19932;-66
2021/01/31 03:40:18;;;;;;;;;;;;;;;;;;5074389;28;19924;-66
2021/01/31 03:42:44;;;;;;;;;;;;;;;;;;5074297;28;19951;-66
2021/01/31 03:45:11;;;;;;;;;;;;;;;;;;5079582;28;19924;-66
2021/01/31 03:47:37;;;;;;;;;;;;;;;;;;5079175;28;19974;-66
2021/01/31 03:50:04;;;;;;;;;;;;;;;;;;5073676;28;19924;-66
2021/01/31 03:52:30;;;;;;;;;;;;;;;;;;5072814;28;19928;-67
2021/01/31 03:54:57;;;;;;;;;;;;;;;;;;5062572;28;19977;-66
2021/01/31 03:57:23;;;;;;;;;;;;;;;;;;5073953;28;19977;-66
2021/01/31 03:59:50;;;;;;;;;;;;;;;;;;5073696;28;19924;-66
2021/01/31 04:02:16;;;;;;;;;;;;;;;;;;5074218;28;19925;-66
2021/01/31 04:04:43;;;;;;;;;;;;;;;;;;5073364;28;19935;-66
2021/01/31 04:07:09;;;;;;;;;;;;;;;;;;5073466;28;19924;-66
2021/01/31 04:09:36;;;;;;;;;;;;;;;;;;5073043;28;19924;-66
2021/01/31 04:12:02;;;;;;;;;;;;;;;;;;5073485;28;19928;-67
2021/01/31 04:14:29;;;;;;;;;;;;;;;;;;5059906;28;19924;-66
2021/01/31 04:16:55;;;;;;;;;;;;;;;;;;5064951;28;20341;-66
2021/01/31 04:19:22;;;;;;;;;;;;;;;;;;5073062;28;19925;-68
2021/01/31 04:21:48;;;;;;;;;;;;;;;;;;5070111;28;20018;-66
2021/01/31 04:24:15;;;;;;;;;;;;;;;;;;5059098;28;19962;-66
2021/01/31 04:26:41;;;;;;;;;;;;;;;;;;5073244;28;20277;-66
2021/01/31 04:29:08;;;;;;;;;;;;;;;;;;5073144;28;20050;-66
2021/01/31 04:31:34;;;;;;;;;;;;;;;;;;5073119;28;19978;-68
2021/01/31 04:34:01;;;;;;;;;;;;;;;;;;5072852;28;19925;-67
2021/01/31 04:36:27;;;;;;;;;;;;;;;;;;5079870;28;19924;-67
2021/01/31 04:38:54;;;;;;;;;;;;;;;;;;5082716;28;19943;-67
2021/01/31 04:41:20;;;;;;;;;;;;;;;;;;5073459;28;19924;-66
2021/01/31 04:43:47;;;;;;;;;;;;;;;;;;5072635;28;19930;-66
2021/01/31 04:46:13;;;;;;;;;;;;;;;;;;5073081;28;19928;-67
2021/01/31 04:48:40;;;;;;;;;;;;;;;;;;5072913;28;20416;-67
2021/01/31 04:51:06;;;;;;;;;;;;;;;;;;5073042;28;19938;-67
2021/01/31 04:53:33;;;;;;;;;;;;;;;;;;5073421;28;19986;-66
2021/01/31 04:55:59;;;;;;;;;;;;;;;;;;5072387;28;19925;-67
2021/01/31 04:58:25;;;;;;;;;;;;;;;;;;5054850;28;20023;-70
2021/01/31 05:00:52;;;;;;;;;;;;;;;;;;5065603;28;19924;-66
2021/01/31 05:03:18;;;;;;;;;;;;;;;;;;5072650;28;19925;-67
2021/01/31 05:05:45;;;;;;;;;;;;;;;;;;5072361;28;19978;-67
2021/01/31 05:08:11;;;;;;;;;;;;;;;;;;5063455;28;20341;-67
2021/01/31 05:10:38;;;;;;;;;;;;;;;;;;5069379;28;19924;-66
2021/01/31 05:13:04;;;;;;;;;;;;;;;;;;5066027;28;20381;-66
2021/01/31 05:15:31;;;;;;;;;;;;;;;;;;5063375;28;19960;-66
2021/01/31 05:17:57;;;;;;;;;;;;;;;;;;5072831;28;19924;-67
2021/01/31 05:20:24;;;;;;;;;;;;;;;;;;5069586;28;19924;-67
2021/01/31 05:22:50;;;;;;;;;;;;;;;;;;5067713;28;19925;-67
2021/01/31 05:25:17;;;;;;;;;;;;;;;;;;5072746;28;19973;-67
2021/01/31 05:27:43;;;;;;;;;;;;;;;;;;5089077;28;19924;-67
2021/01/31 05:30:10;;;;;;;;;;;;;;;;;;5072587;28;19928;-66
2021/01/31 05:32:36;;;;;;;;;;;;;;;;;;5072465;28;19924;-67
2021/01/31 05:35:03;;;;;;;;;;;;;;;;;;5072070;28;19935;-67
2021/01/31 05:37:31;;;;;;;;;;;;;;;;;;5071582;28;20374;-67
2021/01/31 05:39:57;;;;;;;;;;;;;;;;;;5072017;28;19928;-67
2021/01/31 05:42:23;;;;;;;;;;;;;;;;;;5072116;28;19931;-67
2021/01/31 05:44:50;;;;;;;;;;;;;;;;;;5068786;28;19930;-67
2021/01/31 05:47:16;;;;;;;;;;;;;;;;;;5062451;28;19929;-67
2021/01/31 05:49:43;;;;;;;;;;;;;;;;;;5070285;28;19928;-66
2021/01/31 05:52:09;;;;;;;;;;;;;;;;;;5080024;28;20463;-67
2021/01/31 05:54:36;;;;;;;;;;;;;;;;;;5072488;28;19978;-67
2021/01/31 05:57:02;;;;;;;;;;;;;;;;;;5072327;28;19928;-68
2021/01/31 05:59:29;;;;;;;;;;;;;;;;;;5092398;28;19924;-68
2021/01/31 06:01:55;;;;;;;;;;;;;;;;;;5092433;28;19969;-67
2021/01/31 06:04:22;;;;;;;;;;;;;;;;;;5079567;28;20197;-67
2021/01/31 06:06:48;;;;;;;;;;;;;;;;;;5074093;28;19927;-67
2021/01/31 06:09:15;;;;;;;;;;;;;;;;;;5082877;28;20322;-67
2021/01/31 06:11:41;;;;;;;;;;;;;;;;;;5071872;28;19932;-67
2021/01/31 06:14:08;;;;;;;;;;;;;;;;;;5071966;28;19924;-67
2021/01/31 06:16:34;;;;;;;;;;;;;;;;;;5073802;28;20011;-67
2021/01/31 06:19:01;;;;;;;;;;;;;;;;;;5076014;28;19970;-67
2021/01/31 06:21:27;;;;;;;;;;;;;;;;;;5075644;28;19970;-67
2021/01/31 06:23:54;;;;;;;;;;;;;;;;;;5071339;28;19925;-67
2021/01/31 06:26:20;;;;;;;;;;;;;;;;;;5067278;28;19931;-68
2021/01/31 06:28:47;;;;;;;;;;;;;;;;;;5075669;28;19970;-67
2021/01/31 06:31:13;;;;;;;;;;;;;;;;;;5075574;28;20392;-67
2021/01/31 06:33:40;;;;;;;;;;;;;;;;;;5075784;28;19924;-67
2021/01/31 06:36:06;;;;;;;;;;;;;;;;;;5075990;28;19931;-71
2021/01/31 06:38:33;;;;;;;;;;;;;;;;;;5074987;28;19929;-68
2021/01/31 06:40:59;;;;;;;;;;;;;;;;;;5078022;28;19924;-69
2021/01/31 06:43:26;;;;;;;;;;;;;;;;;;5075175;28;19971;-70
2021/01/31 06:45:52;;;;;;;;;;;;;;;;;;5067391;28;19929;-68
2021/01/31 06:48:19;;;;;;;;;;;;;;;;;;5076101;28;19950;-68
2021/01/31 06:50:45;;;;;;;;;;;;;;;;;;5075404;28;19929;-68
2021/01/31 06:53:12;;;;;;;;;;;;;;;;;;5074088;28;19928;-68
2021/01/31 06:55:38;;;;;;;;;;;;;;;;;;5074422;28;20349;-68
2021/01/31 06:58:05;;;;;;;;;;;;;;;;;;5075734;28;19925;-68
2021/01/31 07:00:31;;;;;;;;;;;;;;;;;;5057320;28;20292;-68
2021/01/31 07:02:58;;;;;;;;;;;;;;;;;;5068442;28;19925;-68
2021/01/31 07:05:24;;;;;;;;;;;;;;;;;;5075628;28;20334;-69
2021/01/31 07:07:51;;;;;;;;;;;;;;;;;;5074602;28;19950;-69
2021/01/31 07:10:17;;;;;;;;;;;;;;;;;;5069719;28;20440;-69
2021/01/31 07:12:44;;;;;;;;;;;;;;;;;;5073795;28;19928;-69
2021/01/31 07:15:10;;;;;;;;;;;;;;;;;;5074527;28;19925;-68
2021/01/31 07:17:37;;;;;;;;;;;;;;;;;;5074280;28;19924;-70
2021/01/31 07:20:03;;;;;;;;;;;;;;;;;;5074539;28;19931;-69
2021/01/31 07:22:30;;;;;;;;;;;;;;;;;;5075254;28;19932;-69
2021/01/31 07:24:56;;;;;;;;;;;;;;;;;;5070135;28;19986;-69
2021/01/31 07:27:23;;;;;;;;;;;;;;;;;;5073781;28;19929;-69
2021/01/31 07:29:49;;;;;;;;;;;;;;;;;;5075421;28;19929;-69
2021/01/31 07:32:16;;;;;;;;;;;;;;;;;;5075079;28;20265;-69
2021/01/31 07:34:42;;;;;;;;;;;;;;;;;;5074933;28;19935;-69
2021/01/31 07:37:09;;;;;;;;;;;;;;;;;;5074485;28;20380;-69
2021/01/31 07:39:35;;;;;;;;;;;;;;;;;;5067023;28;19925;-68
2021/01/31 07:42:01;;;;;;;;;;;;;;;;;;5074452;28;19999;-68
2021/01/31 07:44:28;;;;;;;;;;;;;;;;;;5073835;28;20287;-68
2021/01/31 07:46:54;;;;;;;;;;;;;;;;;;5073048;28;19928;-68
2021/01/31 07:49:21;;;;;;;;;;;;;;;;;;5071311;28;19992;-68
2021/01/31 07:51:47;;;;;;;;;;;;;;;;;;5070991;28;19940;-67
2021/01/31 07:54:14;;;;;;;;;;;;;;;;;;5071609;28;19951;-66
2021/01/31 07:56:40;;;;;;;;;;;;;;;;;;5067660;28;19925;-67
2021/01/31 07:59:07;;;;;;;;;;;;;;;;;;5067193;28;19924;-70
2021/01/31 08:01:33;;;;;;;;;;;;;;;;;;5071126;28;19981;-67
2021/01/31 08:03:59;;;;;;;;;;;;;;;;;;5071100;28;19928;-67
2021/01/31 08:06:26;;;;;;;;;;;;;;;;;;5070676;28;19924;-68
2021/01/31 08:08:52;;;;;;;;;;;;;;;;;;5071805;28;19932;-68
2021/01/31 08:11:19;;;;;;;;;;;;;;;;;;5071699;28;19925;-68
2021/01/31 08:13:47;;;;;;;;;;;;;;;;;;5071442;28;19946;-66
2021/01/31 08:16:14;;;;;;;;;;;;;;;;;;5071041;28;20320;-67
2021/01/31 08:18:40;;;;;;;;;;;;;;;;;;5065619;28;20015;-67
2021/01/31 08:21:07;;;;;;;;;;;;;;;;;;5069425;28;20002;-67
2021/01/31 08:23:33;;;;;;;;;;;;;;;;;;5069987;28;19975;-67
2021/01/31 08:25:59;;;;;;;;;;;;;;;;;;5070377;28;20558;-68
2021/01/31 08:28:26;;;;;;;;;;;;;;;;;;5068916;28;19925;-68
2021/01/31 08:30:52;;;;;;;;;;;;;;;;;;5060762;28;20084;-68
2021/01/31 08:33:19;;;;;;;;;;;;;;;;;;5063435;28;19924;-66
2021/01/31 08:35:45;;;;;;;;;;;;;;;;;;5067709;28;20382;-68
2021/01/31 08:38:12;;;;;;;;;;;;;;;;;;5063148;28;20011;-67
2021/01/31 08:40:38;;;;;;;;;;;;;;;;;;5070896;28;19926;-68
2021/01/31 08:43:05;;;;;;;;;;;;;;;;;;5063935;28;19924;-69
2021/01/31 08:45:31;;;;;;;;;;;;;;;;;;5062839;28;19932;-68
2021/01/31 08:47:58;;;;;;;;;;;;;;;;;;5066113;28;20389;-68
2021/01/31 08:50:24;;;;;;;;;;;;;;;;;;5070483;28;19925;-68
2021/01/31 08:52:51;;;;;;;;;;;;;;;;;;5070418;28;19967;-68
2021/01/31 08:55:18;;;;;;;;;;;;;;;;;;5067692;28;20031;-67
2021/01/31 08:57:44;;;;;;;;;;;;;;;;;;5070218;28;19928;-67
2021/01/31 09:00:11;;;;;;;;;;;;;;;;;;5072167;28;19985;-66
2021/01/31 09:02:37;;;;;;;;;;;;;;;;;;5071528;28;19924;-67
2021/01/31 09:05:04;;;;;;;;;;;;;;;;;;5066118;28;19931;-67
2021/01/31 09:07:30;;;;;;;;;;;;;;;;;;5056833;28;20357;-67
2021/01/31 09:09:57;;;;;;;;;;;;;;;;;;5071226;28;20027;-66
2021/01/31 09:12:23;;;;;;;;;;;;;;;;;;5071356;28;19929;-67
2021/01/31 09:14:52;;;;;;;;;;;;;;;;;;5071454;28;20009;-67
2021/01/31 09:17:19;;;;;;;;;;;;;;;;;;5071102;28;19924;-67
2021/01/31 09:19:45;;;;;;;;;;;;;;;;;;5070077;28;20391;-67
2021/01/31 09:22:12;;;;;;;;;;;;;;;;;;5061896;28;19933;-67
2021/01/31 09:24:38;;;;;;;;;;;;;;;;;;5071000;28;20242;-67
2021/01/31 09:27:05;;;;;;;;;;;;;;;;;;5068726;28;19947;-67
2021/01/31 09:29:31;;;;;;;;;;;;;;;;;;5066480;28;19925;-67
2021/01/31 09:31:58;;;;;;;;;;;;;;;;;;5061800;28;19928;-67
2021/01/31 09:34:24;;;;;;;;;;;;;;;;;;5070265;28;20034;-67
2021/01/31 09:36:51;;;;;;;;;;;;;;;;;;5065070;28;19931;-68
2021/01/31 09:39:19;;;;;;;;;;;;;;;;;;5068740;28;20372;-67
2021/01/31 09:41:45;;;;;;;;;;;;;;;;;;5065724;28;19925;-67
2021/01/31 09:44:12;;;;;;;;;;;;;;;;;;5059645;28;19930;-68
2021/01/31 09:46:38;;;;;;;;;;;;;;;;;;5064669;28;20199;-67
2021/01/31 09:49:05;;;;;;;;;;;;;;;;;;5067907;28;19931;-68
2021/01/31 09:51:31;;;;;;;;;;;;;;;;;;5068673;28;20002;-68
2021/01/31 09:53:58;;;;;;;;;;;;;;;;;;5074606;28;20031;-68
2021/01/31 09:56:24;;;;;;;;;;;;;;;;;;5073910;28;19924;-68
2021/01/31 09:58:51;;;;;;;;;;;;;;;;;;5061115;28;19929;-67
2021/01/31 10:01:20;;;;;;;;;;;;;;;;;;5061427;28;20403;-67
2021/01/31 10:03:46;;;;;;;;;;;;;;;;;;5055355;28;19924;-67
2021/01/31 10:06:13;;;;;;;;;;;;;;;;;;5074188;28;19932;-67
2021/01/31 10:08:39;;;;;;;;;;;;;;;;;;5075160;28;19928;-67
2021/01/31 10:11:06;;;;;;;;;;;;;;;;;;5074459;28;19924;-67
2021/01/31 10:13:32;;;;;;;;;;;;;;;;;;5075256;28;19928;-67
2021/01/31 10:15:58;;;;;;;;;;;;;;;;;;5073494;28;19930;-68
2021/01/31 10:18:25;;;;;;;;;;;;;;;;;;5076247;28;20300;-68
2021/01/31 10:20:51;;;;;;;;;;;;;;;;;;5067153;28;19930;-67
2021/01/31 10:23:18;;;;;;;;;;;;;;;;;;5074003;28;19941;-67
2021/01/31 10:25:44;;;;;;;;;;;;;;;;;;5070944;28;19924;-67
2021/01/31 10:28:11;;;;;;;;;;;;;;;;;;5065405;28;20296;-68
2021/01/31 10:30:37;;;;;;;;;;;;;;;;;;5072371;28;20003;-67
2021/01/31 10:33:04;;;;;;;;;;;;;;;;;;5069131;28;19925;-67
2021/01/31 10:35:30;;;;;;;;;;;;;;;;;;5073886;28;19976;-67
2021/01/31 10:37:56;;;;;;;;;;;;;;;;;;5069443;28;20354;-67
2021/01/31 10:40:23;;;;;;;;;;;;;;;;;;5073116;28;19928;-67
2021/01/31 10:42:49;;;;;;;;;;;;;;;;;;5073131;28;20277;-66
2021/01/31 10:45:16;;;;;;;;;;;;;;;;;;5062271;28;19928;-66
2021/01/31 10:47:42;;;;;;;;;;;;;;;;;;5067987;28;19929;-67
2021/01/31 10:50:09;;;;;;;;;;;;;;;;;;5058072;28;19928;-67
2021/01/31 10:52:35;;;;;;;;;;;;;;;;;;5065076;28;19977;-67
2021/01/31 10:55:02;;;;;;;;;;;;;;;;;;5072950;28;19968;-67
2021/01/31 10:57:29;;;;;;;;;;;;;;;;;;5069107;28;19939;-67
2021/01/31 10:59:55;;;;;;;;;;;;;;;;;;5067333;28;20326;-66
2021/01/31 11:02:21;;;;;;;;;;;;;;;;;;5060057;28;19933;-67
2021/01/31 11:04:48;;;;;;;;;;;;;;;;;;5055254;28;20007;-66
2021/01/31 11:07:15;;;;;;;;;;;;;;;;;;5072364;28;19928;-66
2021/01/31 11:09:41;;;;;;;;;;;;;;;;;;5073659;28;19925;-66
2021/01/31 11:12:08;;;;;;;;;;;;;;;;;;5076721;28;19924;-67
2021/01/31 11:14:34;;;;;;;;;;;;;;;;;;5073210;28;20439;-67
2021/01/31 11:17:01;;;;;;;;;;;;;;;;;;5062227;28;19924;-67
2021/01/31 11:19:27;;;;;;;;;;;;;;;;;;5069339;28;20414;-66
2021/01/31 11:21:54;;;;;;;;;;;;;;;;;;5066108;28;20010;-67
2021/01/31 11:24:20;;;;;;;;;;;;;;;;;;5066817;28;19979;-67
2021/01/31 11:26:47;;;;;;;;;;;;;;;;;;5067977;28;20021;-66
2021/01/31 11:29:13;;;;;;;;;;;;;;;;;;5067090;28;19981;-68
2021/01/31 11:31:40;;;;;;;;;;;;;;;;;;5070359;28;19959;-68
2021/01/31 11:34:06;;;;;;;;;;;;;;;;;;5072811;28;19924;-69
2021/01/31 11:36:33;;;;;;;;;;;;;;;;;;5070223;28;19931;-66
2021/01/31 11:39:06;;;;;;;;;;;;;;;;;;5066368;28;19925;-71
2021/01/31 11:41:33;;;;;;;;;;;;;;;;;;5072291;28;19925;-67
2021/01/31 11:43:59;;;;;;;;;;;;;;;;;;5071310;28;19924;-68
2021/01/31 11:46:26;;;;;;;;;;;;;;;;;;5071096;28;19928;-69
2021/01/31 11:48:52;;;;;;;;;;;;;;;;;;5070083;28;19935;-67
2021/01/31 11:51:19;;;;;;;;;;;;;;;;;;5068386;28;19933;-68
2021/01/31 11:53:45;;;;;;;;;;;;;;;;;;5073297;28;20296;-68
2021/01/31 11:56:12;;;;;;;;;;;;;;;;;;5073301;28;19928;-68
2021/01/31 11:58:38;;;;;;;;;;;;;;;;;;5072192;28;19977;-67
2021/01/31 12:01:05;;;;;;;;;;;;;;;;;;5062080;28;19928;-68
2021/01/31 12:03:31;;;;;;;;;;;;;;;;;;5065369;28;20014;-68
2021/01/31 12:05:57;;;;;;;;;;;;;;;;;;5066481;28;19931;-69
2021/01/31 12:08:24;;;;;;;;;;;;;;;;;;5072484;28;19925;-68
2021/01/31 12:10:50;;;;;;;;;;;;;;;;;;5067872;28;19925;-68
2021/01/31 12:13:17;;;;;;;;;;;;;;;;;;5072553;28;19928;-68
2021/01/31 12:15:44;;;;;;;;;;;;;;;;;;5068781;28;20333;-68
2021/01/31 12:18:10;;;;;;;;;;;;;;;;;;5069855;28;19933;-69
2021/01/31 12:20:37;;;;;;;;;;;;;;;;;;5068538;28;19960;-68
2021/01/31 12:23:03;;;;;;;;;;;;;;;;;;5070939;28;19931;-68
2021/01/31 12:25:30;;;;;;;;;;;;;;;;;;5071447;28;19993;-68
2021/01/31 12:27:57;;;;;;;;;;;;;;;;;;5071957;28;19971;-68
2021/01/31 12:30:23;;;;;;;;;;;;;;;;;;5065712;28;20085;-69
2021/01/31 12:32:50;;;;;;;;;;;;;;;;;;5072901;28;20017;-69
2021/01/31 12:35:16;;;;;;;;;;;;;;;;;;5073010;28;19975;-69
2021/01/31 12:37:43;;;;;;;;;;;;;;;;;;5071037;28;20019;-68
2021/01/31 12:40:09;;;;;;;;;;;;;;;;;;5072480;28;20465;-68
2021/01/31 12:42:36;;;;;;;;;;;;;;;;;;5073536;28;19988;-69
2021/01/31 12:45:02;;;;;;;;;;;;;;;;;;5070032;28;19925;-69
2021/01/31 12:47:29;;;;;;;;;;;;;;;;;;5065532;28;20351;-69
2021/01/31 12:49:55;;;;;;;;;;;;;;;;;;5065250;28;19931;-69
2021/01/31 12:52:22;;;;;;;;;;;;;;;;;;5071864;28;20327;-68
2021/01/31 12:54:48;;;;;;;;;;;;;;;;;;5070378;28;20461;-70
2021/01/31 12:57:15;;;;;;;;;;;;;;;;;;5070752;28;19931;-69
2021/01/31 12:59:41;;;;;;;;;;;;;;;;;;5070752;28;19925;-68
2021/01/31 13:02:08;;;;;;;;;;;;;;;;;;5071030;28;20011;-68
2021/01/31 13:04:34;;;;;;;;;;;;;;;;;;5068776;28;20353;-68
2021/01/31 13:07:01;;;;;;;;;;;;;;;;;;5068251;28;20007;-68
2021/01/31 13:09:30;;;;;;;;;;;;;;;;;;5070243;28;19932;-69
2021/01/31 13:11:57;;;;;;;;;;;;;;;;;;5070756;28;19950;-70
2021/01/31 13:14:23;;;;;;;;;;;;;;;;;;5063109;28;19935;-70
2021/01/31 13:16:50;;;;;;;;;;;;;;;;;;5070850;28;19931;-70
2021/01/31 13:19:16;;;;;;;;;;;;;;;;;;5063680;28;19968;-70
2021/01/31 13:21:43;;;;;;;;;;;;;;;;;;5067457;28;20023;-70
2021/01/31 13:24:09;;;;;;;;;;;;;;;;;;5071087;28;19928;-69
2021/01/31 13:26:36;;;;;;;;;;;;;;;;;;5071541;28;19925;-69
2021/01/31 13:29:02;;;;;;;;;;;;;;;;;;5065656;28;19958;-69
2021/01/31 13:31:29;;;;;;;;;;;;;;;;;;5065097;28;19977;-69
2021/01/31 13:33:55;;;;;;;;;;;;;;;;;;5060014;28;20011;-69
2021/01/31 13:36:22;;;;;;;;;;;;;;;;;;5069830;28;19929;-68
2021/01/31 13:38:48;;;;;;;;;;;;;;;;;;5072084;28;20047;-68
2021/01/31 13:41:15;;;;;;;;;;;;;;;;;;5110937;22;19978;-69
2021/01/31 13:43:41;;;;;;;;;;;;;;;;;;5104689;28;19974;-68
2021/01/31 13:46:08;;;;;;;;;;;;;;;;;;5100034;28;19924;-68
2021/01/31 13:48:34;;;;;;;;;;;;;;;;;;5105849;28;19992;-67
2021/01/31 13:51:01;;;;;;;;;;;;;;;;;;5093760;28;19931;-67
2021/01/31 13:53:27;;;;;;;;;;;;;;;;;;5079163;28;19934;-67
2021/01/31 13:55:54;;;;;;;;;;;;;;;;;;5092857;28;19924;-68
2021/01/31 13:58:20;;;;;;;;;;;;;;;;;;5093418;28;19924;-66
2021/01/31 14:00:48;;;;;;;;;;;;;;;;;;5092018;28;19946;-66
2021/01/31 14:03:14;;;;;;;;;;;;;;;;;;5085579;28;20388;-66
2021/01/31 14:05:41;;;;;;;;;;;;;;;;;;5092049;28;19928;-67
2021/01/31 14:08:07;;;;;;;;;;;;;;;;;;5093919;28;19924;-66
2021/01/31 14:10:34;;;;;;;;;;;;;;;;;;5098608;28;19967;-68
2021/01/31 14:13:01;;;;;;;;;;;;;;;;;;5099142;28;19987;-66
2021/01/31 14:15:28;;;;;;;;;;;;;;;;;;5089750;28;20350;-66
2021/01/31 14:17:54;;;;;;;;;;;;;;;;;;5087602;28;19935;-68
2021/01/31 14:20:21;;;;;;;;;;;;;;;;;;5099032;28;19931;-67
2021/01/31 14:22:47;;;;;;;;;;;;;;;;;;5088317;28;19956;-67
2021/01/31 14:25:14;;;;;;;;;;;;;;;;;;5091886;28;19934;-68
2021/01/31 14:27:41;;;;;;;;;;;;;;;;;;5098801;28;20022;-67
2021/01/31 14:30:07;;;;;;;;;;;;;;;;;;5093189;28;19982;-66
2021/01/31 14:32:34;;;;;;;;;;;;;;;;;;5088417;28;19971;-66
2021/01/31 14:35:00;;;;;;;;;;;;;;;;;;5085689;28;19924;-65
2021/01/31 14:37:27;;;;;;;;;;;;;;;;;;5094470;28;19961;-68
2021/01/31 14:39:53;;;;;;;;;;;;;;;;;;5096599;28;19974;-66
2021/01/31 14:42:20;;;;;;;;;;;;;;;;;;5093248;28;19990;-68
2021/01/31 14:44:46;;;;;;;;;;;;;;;;;;5090937;28;19932;-68
2021/01/31 14:47:13;;;;;;;;;;;;;;;;;;5094327;28;19924;-67
2021/01/31 14:49:39;;;;;;;;;;;;;;;;;;5096055;28;19924;-66
2021/01/31 14:52:06;;;;;;;;;;;;;;;;;;5097528;28;19924;-66
2021/01/31 14:54:33;;;;;;;;;;;;;;;;;;5095338;28;19928;-66
2021/01/31 14:56:59;;;;;;;;;;;;;;;;;;5093512;28;19997;-67
2021/01/31 14:59:26;;;;;;;;;;;;;;;;;;5090558;28;20281;-68
2021/01/31 15:01:52;;;;;;;;;;;;;;;;;;5093030;28;19971;-68
2021/01/31 15:04:19;;;;;;;;;;;;;;;;;;5095400;28;19928;-67
2021/01/31 15:06:45;;;;;;;;;;;;;;;;;;5096085;28;20028;-68
2021/01/31 15:09:12;;;;;;;;;;;;;;;;;;5095937;28;19931;-67
2021/01/31 15:11:38;;;;;;;;;;;;;;;;;;5087286;28;19934;-67
2021/01/31 15:14:05;;;;;;;;;;;;;;;;;;5095921;28;20011;-67
2021/01/31 15:16:31;;;;;;;;;;;;;;;;;;5092249;28;19950;-67
2021/01/31 15:18:58;;;;;;;;;;;;;;;;;;5091414;28;20427;-67
2021/01/31 15:21:24;;;;;;;;;;;;;;;;;;5094219;28;19970;-66
2021/01/31 15:23:51;;;;;;;;;;;;;;;;;;5091140;28;19995;-64
2021/01/31 15:26:17;;;;;;;;;;;;;;;;;;5087625;28;20351;-67
2021/01/31 15:28:44;;;;;;;;;;;;;;;;;;5083815;28;19924;-65
2021/01/31 15:31:10;;;;;;;;;;;;;;;;;;5092307;28;20048;-66
2021/01/31 15:33:37;;;;;;;;;;;;;;;;;;5086931;28;20023;-66
2021/01/31 15:36:03;;;;;;;;;;;;;;;;;;5094409;28;20446;-66
2021/01/31 15:38:30;;;;;;;;;;;;;;;;;;5084799;28;19931;-66
2021/01/31 15:40:57;;;;;;;;;;;;;;;;;;5093276;28;19930;-67
2021/01/31 15:43:24;;;;;;;;;;;;;;;;;;5086312;28;19924;-67
2021/01/31 15:45:50;;;;;;;;;;;;;;;;;;5089014;28;20371;-67
2021/01/31 15:48:17;;;;;;;;;;;;;;;;;;5085179;28;21380;-67
2021/01/31 15:50:43;;;;;;;;;;;;;;;;;;5088700;28;19967;-67
2021/01/31 15:53:10;;;;;;;;;;;;;;;;;;5095932;28;20387;-66
2021/01/31 15:55:36;;;;;;;;;;;;;;;;;;5094116;28;20353;-69
2021/01/31 15:58:03;;;;;;;;;;;;;;;;;;5084919;28;19956;-66
2021/01/31 16:00:35;;;;;;;;;;;;;;;;;;5090687;28;20007;-67
2021/01/31 16:03:05;;;;;;;;;;;;;;;;;;5082572;28;19924;-66
2021/01/31 16:05:31;;;;;;;;;;;;;;;;;;5093694;28;20243;-63
2021/01/31 16:07:58;;;;;;;;;;;;;;;;;;5098883;28;19924;-65
2021/01/31 16:10:24;;;;;;;;;;;;;;;;;;5095730;28;19959;-65
2021/01/31 16:12:51;;;;;;;;;;;;;;;;;;5094094;28;19955;-65
2021/01/31 16:15:17;;;;;;;;;;;;;;;;;;5093359;28;19990;-66
2021/01/31 16:17:44;;;;;;;;;;;;;;;;;;5089718;28;19924;-68
2021/01/31 16:20:11;;;;;;;;;;;;;;;;;;5084779;28;19931;-68
2021/01/31 16:22:37;;;;;;;;;;;;;;;;;;5095111;28;19924;-66
2021/01/31 16:25:04;;;;;;;;;;;;;;;;;;5092285;28;19977;-64
2021/01/31 16:27:30;;;;;;;;;;;;;;;;;;5088563;28;19971;-66
2021/01/31 16:29:57;;;;;;;;;;;;;;;;;;5094577;28;19939;-66
2021/01/31 16:32:23;;;;;;;;;;;;;;;;;;5092688;28;20015;-66
2021/01/31 16:34:50;;;;;;;;;;;;;;;;;;5090988;28;19939;-67
2021/01/31 16:37:16;;;;;;;;;;;;;;;;;;5092147;28;20332;-65
2021/01/31 16:39:46;;;;;;;;;;;;;;;;;;5097074;28;19928;-65